LHQ weather

Fairfield County Airport
Lancaster, Ohio, United States

Public forecast

Using degrees Fahrenheit for public forecast. Weather courtesy of forecast.io.

Current aviation weather report (METAR) for Fairfield County Airport

Retrieved 2019/10/22 17:53 UTC (12 minutes ago):

KLHQ 221753Z AUTO 25018G23KT 10SM SCT060 17/06 A2977 RMK AO2 PK WND 22027/1727 SLP076 T01670056 10183 20139 58002

Closest aviation forecast (TAF) to Fairfield County Airport

Closest forecast is Rickenbacker International Airport, 13.0 nm (24.0 km) WNW. Retrieved 2019/10/22 18:45 UTC (0 seconds ago):

TAF TAF KLCK 221739Z 2218/2318 24014G28KT P6SM SCT050 FM222300 24012KT P6SM SCT060 FM230500 24010KT P6SM SKC FM231500 24013G22KT P6SM SKC